createdAt,value
2023-03-15T00:01:14.954Z,19.30
2023-03-15T00:03:44.048Z,15.10
2023-03-15T00:06:12.863Z,13.53
2023-03-15T00:08:40.596Z,18.17
2023-03-15T00:11:08.456Z,16.40
2023-03-15T00:13:36.012Z,20.17
2023-03-15T00:16:05.152Z,18.60
2023-03-15T00:18:32.828Z,19.77
2023-03-15T00:21:02.409Z,18.27
2023-03-15T00:23:31.483Z,15.83
2023-03-15T00:25:58.954Z,19.53
2023-03-15T00:28:26.492Z,17.53
2023-03-15T00:31:04.754Z,7.53
2023-03-15T00:33:34.891Z,8.30
2023-03-15T00:36:06.194Z,8.70
2023-03-15T00:38:33.817Z,8.13
2023-03-15T00:41:06.002Z,9.00
2023-03-15T00:43:33.628Z,9.13
2023-03-15T00:46:01.566Z,8.47
2023-03-15T00:48:29.212Z,6.90
2023-03-15T00:51:05.343Z,6.80
2023-03-15T00:53:33.308Z,7.40
2023-03-15T00:56:05.628Z,6.80
2023-03-15T00:58:33.091Z,7.40
2023-03-15T01:01:01.498Z,9.50
2023-03-15T01:03:29.180Z,11.00
2023-03-15T01:05:56.686Z,6.23
2023-03-15T01:08:25.645Z,10.60
2023-03-15T01:10:53.107Z,7.90
2023-03-15T01:13:20.590Z,7.87
2023-03-15T01:15:48.485Z,7.93
2023-03-15T01:18:15.983Z,7.30
2023-03-15T01:20:45.711Z,9.77
2023-03-15T01:23:13.195Z,8.37
2023-03-15T01:25:42.029Z,7.77
2023-03-15T01:28:09.605Z,8.20
2023-03-15T01:30:37.077Z,8.03
2023-03-15T01:33:04.899Z,8.27
2023-03-15T01:35:32.621Z,11.87
2023-03-15T01:38:00.096Z,11.60
2023-03-15T01:40:27.591Z,10.87
2023-03-15T01:43:16.372Z,8.87
2023-03-15T01:46:04.191Z,10.37
2023-03-15T01:48:37.026Z,8.63
2023-03-15T01:51:10.636Z,10.60
2023-03-15T01:53:40.297Z,12.40
2023-03-15T01:56:08.897Z,10.40
2023-03-15T01:58:39.333Z,9.53
2023-03-15T02:01:08.372Z,8.97
2023-03-15T02:03:39.664Z,8.93
2023-03-15T02:06:10.837Z,7.63
2023-03-15T02:08:43.055Z,6.73
2023-03-15T02:11:12.453Z,7.23
2023-03-15T02:13:42.255Z,6.37
2023-03-15T02:16:09.801Z,8.87
2023-03-15T02:18:37.281Z,5.90
2023-03-15T02:21:15.207Z,6.67
2023-03-15T02:23:45.085Z,6.10
2023-03-15T02:26:21.972Z,12.97
2023-03-15T02:28:53.726Z,5.67
2023-03-15T02:31:22.612Z,6.80
2023-03-15T02:33:52.012Z,6.20
2023-03-15T02:36:21.772Z,6.13
2023-03-15T02:38:50.512Z,8.10
2023-03-15T02:41:22.564Z,6.53
2023-03-15T02:43:56.300Z,5.80
2023-03-15T02:46:24.689Z,6.73
2023-03-15T02:48:54.378Z,7.73
2023-03-15T02:51:24.745Z,10.27
2023-03-15T02:53:52.310Z,10.53
2023-03-15T02:56:19.845Z,10.53
2023-03-15T02:58:47.381Z,10.40
2023-03-15T03:01:17.335Z,13.03
2023-03-15T03:03:47.190Z,12.40
2023-03-15T03:06:16.446Z,19.03
2023-03-15T03:08:46.962Z,23.03
2023-03-15T03:11:15.446Z,18.47
2023-03-15T03:13:43.536Z,14.97
2023-03-15T03:16:11.320Z,16.13
2023-03-15T03:18:42.162Z,12.17
2023-03-15T03:21:09.702Z,10.73
2023-03-15T03:23:37.895Z,14.40
2023-03-15T03:26:16.717Z,15.67
2023-03-15T03:28:45.688Z,16.07
2023-03-15T03:31:22.082Z,12.80
2023-03-15T03:33:51.304Z,11.10
2023-03-15T03:36:19.653Z,11.60
2023-03-15T03:38:47.842Z,11.53
2023-03-15T03:41:16.082Z,10.87
2023-03-15T03:43:43.659Z,8.43
2023-03-15T03:46:11.400Z,9.27
2023-03-15T03:48:39.034Z,10.00
2023-03-15T03:51:08.146Z,11.43
2023-03-15T03:53:35.669Z,11.23
2023-03-15T03:56:05.777Z,8.17
2023-03-15T03:58:33.312Z,9.23
2023-03-15T04:01:01.247Z,8.30
2023-03-15T04:03:28.773Z,8.83
2023-03-15T04:05:57.140Z,8.30
2023-03-15T04:08:27.544Z,8.93
2023-03-15T04:10:56.880Z,10.20
2023-03-15T04:13:25.651Z,9.00
2023-03-15T04:15:57.352Z,11.77
2023-03-15T04:18:25.169Z,14.33
2023-03-15T04:20:54.648Z,13.77
2023-03-15T04:23:24.017Z,15.20
2023-03-15T04:25:55.109Z,10.60
2023-03-15T04:28:22.903Z,10.93
2023-03-15T04:30:51.859Z,8.83
2023-03-15T04:33:19.366Z,14.80
2023-03-15T04:35:46.889Z,17.40
2023-03-15T04:38:14.423Z,11.00
2023-03-15T04:40:42.784Z,10.40
2023-03-15T04:43:11.760Z,18.77
2023-03-15T04:45:39.217Z,15.30
2023-03-15T04:48:07.082Z,12.83
2023-03-15T04:50:34.553Z,14.97
2023-03-15T04:53:02.042Z,16.40
2023-03-15T04:55:29.557Z,15.83
2023-03-15T04:57:58.258Z,15.97
2023-03-15T05:00:27.105Z,12.13
2023-03-15T05:02:55.560Z,14.63
2023-03-15T05:05:24.307Z,8.77
2023-03-15T05:07:52.176Z,10.17
2023-03-15T05:10:19.986Z,9.63
2023-03-15T05:12:47.446Z,10.70
2023-03-15T05:15:15.062Z,13.80
2023-03-15T05:17:46.417Z,11.37
2023-03-15T05:20:14.321Z,12.30
2023-03-15T05:22:42.132Z,13.20
2023-03-15T05:25:11.076Z,15.17
2023-03-15T05:27:38.948Z,13.23
2023-03-15T05:30:08.094Z,14.30
2023-03-15T05:32:37.617Z,9.87
2023-03-15T05:35:08.360Z,11.40
2023-03-15T05:37:35.849Z,10.50
2023-03-15T05:40:04.614Z,11.53
2023-03-15T05:42:32.076Z,10.77
2023-03-15T05:44:59.551Z,11.83
2023-03-15T05:47:27.031Z,12.87
2023-03-15T05:49:54.504Z,12.60
2023-03-15T05:52:23.896Z,13.27
2023-03-15T05:54:51.360Z,12.37
2023-03-15T05:57:18.958Z,13.60
2023-03-15T05:59:46.457Z,19.70
2023-03-15T06:02:13.941Z,11.30
2023-03-15T06:04:41.495Z,13.17
2023-03-15T06:07:09.445Z,14.77
2023-03-15T06:09:38.266Z,11.70
2023-03-15T06:12:06.681Z,10.77
2023-03-15T06:14:34.449Z,11.27
2023-03-15T06:17:01.898Z,10.87
2023-03-15T06:19:29.482Z,11.03
2023-03-15T06:21:56.987Z,13.97
2023-03-15T06:24:25.064Z,13.03
2023-03-15T06:26:54.802Z,14.13
2023-03-15T06:29:22.693Z,10.97
2023-03-15T06:31:50.554Z,14.63
2023-03-15T06:34:18.417Z,12.53
2023-03-15T06:36:46.306Z,14.70
2023-03-15T06:39:14.718Z,14.57
2023-03-15T06:41:42.629Z,10.50
2023-03-15T06:44:12.053Z,13.50
2023-03-15T06:46:39.723Z,15.40
2023-03-15T06:49:07.465Z,16.23
2023-03-15T06:51:34.920Z,10.47
2023-03-15T06:54:02.379Z,11.47
2023-03-15T06:56:29.862Z,14.10
2023-03-15T06:58:57.318Z,11.83
2023-03-15T07:01:26.302Z,15.80
2023-03-15T07:03:53.817Z,18.37
2023-03-15T07:06:21.315Z,13.37
2023-03-15T07:08:48.759Z,12.33
2023-03-15T07:11:16.222Z,14.37
2023-03-15T07:13:44.890Z,18.20
2023-03-15T07:16:12.525Z,20.53
2023-03-15T07:18:41.333Z,18.17
2023-03-15T07:21:08.816Z,13.90
2023-03-15T07:23:36.506Z,14.10
2023-03-15T07:26:04.442Z,16.93
2023-03-15T07:28:31.912Z,17.97
2023-03-15T07:31:01.617Z,9.77
2023-03-15T07:33:30.916Z,12.13
2023-03-15T07:36:00.449Z,10.17
2023-03-15T07:38:29.741Z,13.27
2023-03-15T07:40:57.257Z,14.00
2023-03-15T07:43:25.350Z,18.27
2023-03-15T07:45:52.847Z,15.30
2023-03-15T07:48:20.702Z,17.90
2023-03-15T07:50:48.300Z,13.63
2023-03-15T07:53:17.277Z,8.50
2023-03-15T07:55:44.929Z,10.33
2023-03-15T07:58:13.346Z,11.10
2023-03-15T08:00:41.024Z,6.57
2023-03-15T08:03:08.625Z,6.17
2023-03-15T08:05:36.500Z,9.47
2023-03-15T08:08:04.061Z,10.87
2023-03-15T08:10:32.881Z,9.57
2023-03-15T08:13:00.365Z,7.03
2023-03-15T08:15:27.928Z,10.07
2023-03-15T08:17:55.417Z,6.83
2023-03-15T08:20:22.934Z,11.33
2023-03-15T08:22:51.538Z,11.23
2023-03-15T08:25:21.490Z,9.87
2023-03-15T08:27:51.324Z,10.83
2023-03-15T08:30:20.192Z,5.80
2023-03-15T08:32:48.910Z,11.13
2023-03-15T08:35:18.484Z,6.90
2023-03-15T08:37:47.755Z,7.63
2023-03-15T08:40:18.867Z,10.03
2023-03-15T08:42:46.452Z,9.30
2023-03-15T08:45:16.060Z,8.03
2023-03-15T08:47:43.795Z,5.50
2023-03-15T08:50:14.414Z,7.37
2023-03-15T08:52:42.458Z,8.13
2023-03-15T08:55:14.250Z,11.50
2023-03-15T08:57:42.836Z,9.00
2023-03-15T09:00:15.949Z,9.83
2023-03-15T09:02:44.918Z,7.27
2023-03-15T09:05:12.479Z,5.67
2023-03-15T09:07:42.721Z,8.77
2023-03-15T09:10:13.159Z,6.43
2023-03-15T09:12:40.955Z,4.10
2023-03-15T09:15:09.635Z,5.03
2023-03-15T09:17:37.250Z,8.30
2023-03-15T09:20:14.598Z,7.63
2023-03-15T09:22:42.364Z,4.77
2023-03-15T09:25:10.867Z,4.35
2023-03-15T09:27:38.377Z,7.65
2023-03-15T09:30:06.673Z,3.25
2023-03-15T09:32:36.370Z,4.43
2023-03-15T09:35:07.537Z,3.77
2023-03-15T09:37:35.585Z,4.27
2023-03-15T09:40:04.659Z,4.60
2023-03-15T09:42:42.837Z,9.03
2023-03-15T09:45:19.552Z,5.57
2023-03-15T09:47:56.867Z,4.23
2023-03-15T09:50:29.021Z,4.23
2023-03-15T09:53:01.770Z,3.87
2023-03-15T09:55:30.164Z,8.37
2023-03-15T09:58:01.024Z,3.17
2023-03-15T10:00:36.800Z,5.27
2023-03-15T10:03:07.274Z,4.40
2023-03-15T10:05:42.090Z,6.57
2023-03-15T10:08:12.577Z,5.87
2023-03-15T10:10:48.213Z,6.57
2023-03-15T10:13:29.353Z,3.37
2023-03-15T10:16:08.761Z,4.53
2023-03-15T10:18:47.952Z,2.63
2023-03-15T10:21:29.661Z,3.47
2023-03-15T10:23:57.150Z,4.47
2023-03-15T10:26:29.396Z,4.57
2023-03-15T10:28:56.963Z,4.27
2023-03-15T10:31:36.894Z,6.60
2023-03-15T10:34:11.648Z,5.00
2023-03-15T10:36:45.864Z,7.07
2023-03-15T10:39:14.087Z,5.27
2023-03-15T10:41:43.798Z,3.28
2023-03-15T10:44:15.023Z,3.88
2023-03-15T10:46:42.831Z,3.45
2023-03-15T10:49:12.986Z,3.85
2023-03-15T10:51:44.775Z,6.40
2023-03-15T10:54:19.289Z,5.82
2023-03-15T10:56:49.652Z,3.72
2023-03-15T10:59:20.442Z,3.10
2023-03-15T11:01:49.877Z,3.47
2023-03-15T11:04:21.427Z,2.83
2023-03-15T11:06:52.221Z,5.07
2023-03-15T11:09:22.749Z,4.77
2023-03-15T11:12:00.766Z,1.97
2023-03-15T11:14:34.464Z,5.03
2023-03-15T11:17:02.162Z,4.63
2023-03-15T11:19:32.858Z,6.87
2023-03-15T11:22:03.173Z,5.60
2023-03-15T11:24:32.348Z,3.33
2023-03-15T11:27:02.240Z,3.17
2023-03-15T11:29:32.573Z,7.23
2023-03-15T11:32:02.343Z,2.47
2023-03-15T11:34:43.133Z,4.53
2023-03-15T11:37:21.497Z,2.83
2023-03-15T11:40:05.050Z,4.23
2023-03-15T11:42:44.927Z,5.20
2023-03-15T11:45:19.398Z,6.43
2023-03-15T11:47:54.148Z,3.57
2023-03-15T11:50:21.795Z,3.27
2023-03-15T11:52:52.763Z,7.00
2023-03-15T11:55:25.164Z,7.17
2023-03-15T11:57:53.337Z,4.50
2023-03-15T12:00:53.481Z,7.77
2023-03-15T12:03:30.137Z,4.20
2023-03-15T12:06:04.223Z,3.90
2023-03-15T12:08:45.301Z,3.70
2023-03-15T12:11:13.747Z,2.70
2023-03-15T12:13:53.865Z,3.63
2023-03-15T12:16:22.516Z,3.77
2023-03-15T12:18:50.795Z,2.87
2023-03-15T12:21:23.081Z,3.93
2023-03-15T12:24:01.506Z,10.00
2023-03-15T12:26:39.207Z,2.10
2023-03-15T12:29:13.036Z,4.93
2023-03-15T12:31:55.330Z,1.73
2023-03-15T12:34:43.376Z,4.07
2023-03-15T12:37:17.905Z,1.80
2023-03-15T12:39:50.522Z,3.37
2023-03-15T12:43:07.187Z,4.57
2023-03-15T12:45:45.352Z,3.33
2023-03-15T12:48:23.688Z,3.37
2023-03-15T12:50:54.395Z,9.20
2023-03-15T12:53:28.083Z,4.93
2023-03-15T12:56:08.074Z,5.43
2023-03-15T12:58:37.783Z,5.47
2023-03-15T13:01:07.050Z,3.40
2023-03-15T13:03:36.137Z,5.13
2023-03-15T13:06:12.910Z,4.50
2023-03-15T13:08:47.423Z,5.20
2023-03-15T13:11:22.921Z,5.47
2023-03-15T13:14:06.134Z,8.30
2023-03-15T13:16:39.996Z,6.07
2023-03-15T13:19:17.886Z,6.00
2023-03-15T13:22:08.520Z,7.53
2023-03-15T13:24:45.649Z,4.60
2023-03-15T13:27:29.765Z,6.47
2023-03-15T13:29:57.586Z,7.33
2023-03-15T13:32:25.264Z,7.13
2023-03-15T13:34:52.782Z,6.63
2023-03-15T13:37:25.543Z,9.03
2023-03-15T13:39:56.305Z,6.23
2023-03-15T13:42:26.256Z,5.90
2023-03-15T13:45:05.228Z,6.20
2023-03-15T13:47:33.245Z,10.97
2023-03-15T13:50:04.421Z,6.37
2023-03-15T13:52:32.000Z,6.67
2023-03-15T13:55:02.038Z,12.33
2023-03-15T13:57:31.048Z,5.00
2023-03-15T14:00:01.443Z,3.43
2023-03-15T14:02:37.640Z,4.83
2023-03-15T14:05:09.257Z,6.63
2023-03-15T14:07:39.155Z,4.97
2023-03-15T14:10:26.292Z,5.27
2023-03-15T14:12:56.596Z,3.40
2023-03-15T14:15:27.604Z,6.77
2023-03-15T14:18:01.050Z,3.07
2023-03-15T14:20:33.540Z,3.50
2023-03-15T14:23:03.084Z,3.83
2023-03-15T14:25:34.827Z,4.93
2023-03-15T14:28:04.945Z,4.53
2023-03-15T14:30:36.475Z,4.77
2023-03-15T14:33:07.419Z,4.80
2023-03-15T14:35:43.373Z,7.40
2023-03-15T14:38:18.846Z,4.80
2023-03-15T14:40:46.636Z,5.57
2023-03-15T14:43:15.601Z,7.97
2023-03-15T14:45:46.500Z,3.30
2023-03-15T14:48:16.326Z,10.10
2023-03-15T14:50:45.853Z,3.20
2023-03-15T14:53:17.412Z,3.47
2023-03-15T14:55:44.940Z,7.97
2023-03-15T14:58:14.304Z,3.40
2023-03-15T15:00:44.496Z,3.27
2023-03-15T15:03:18.628Z,3.53
2023-03-15T15:05:47.188Z,3.27
2023-03-15T15:08:16.407Z,5.20
2023-03-15T15:10:47.242Z,4.50
2023-03-15T15:13:19.442Z,8.13
2023-03-15T15:15:55.616Z,5.37
2023-03-15T15:18:24.432Z,5.17
2023-03-15T15:20:55.286Z,5.97
2023-03-15T15:23:25.659Z,3.53
2023-03-15T15:25:55.053Z,5.50
2023-03-15T15:28:33.903Z,5.07
2023-03-15T15:31:04.062Z,5.73
2023-03-15T15:33:31.698Z,5.63
2023-03-15T15:35:59.410Z,5.33
2023-03-15T15:38:32.843Z,5.73
2023-03-15T15:41:00.405Z,5.53
2023-03-15T15:43:27.856Z,6.33
2023-03-15T15:45:55.422Z,6.33
2023-03-15T15:48:24.326Z,5.10
2023-03-15T15:50:51.817Z,5.37
2023-03-15T15:53:19.375Z,6.70
2023-03-15T15:55:47.057Z,4.20
2023-03-15T15:58:16.693Z,5.33
2023-03-15T16:00:44.155Z,3.97
2023-03-15T16:03:15.705Z,6.57
2023-03-15T16:05:44.800Z,5.77
2023-03-15T16:08:21.676Z,11.03
2023-03-15T16:10:49.195Z,4.30
2023-03-15T16:13:17.047Z,6.30
2023-03-15T16:15:45.010Z,7.10
2023-03-15T16:18:13.304Z,13.77
2023-03-15T16:20:42.190Z,9.77
2023-03-15T16:23:20.355Z,25.80
2023-03-15T16:25:50.213Z,9.47
2023-03-15T16:28:17.907Z,13.57
2023-03-15T16:30:46.972Z,11.43
2023-03-15T16:33:16.297Z,5.60
2023-03-15T16:35:44.690Z,7.40
2023-03-15T16:38:16.862Z,6.23
2023-03-15T16:40:46.432Z,7.50
2023-03-15T16:43:14.874Z,8.23
2023-03-15T16:45:42.439Z,7.23
2023-03-15T16:48:11.924Z,6.73
2023-03-15T16:50:40.897Z,10.40
2023-03-15T16:53:10.383Z,10.33
2023-03-15T16:55:39.594Z,8.73
2023-03-15T16:58:18.746Z,9.90
2023-03-15T17:00:48.226Z,10.47
2023-03-15T17:03:17.588Z,10.83
2023-03-15T17:05:47.517Z,11.33
2023-03-15T17:08:19.550Z,8.90
2023-03-15T17:10:49.339Z,10.30
2023-03-15T17:13:21.560Z,9.80
2023-03-15T17:15:49.349Z,12.57
2023-03-15T17:18:19.745Z,12.80
2023-03-15T17:20:49.336Z,13.73
2023-03-15T17:23:18.106Z,15.07
2023-03-15T17:25:45.618Z,9.03
2023-03-15T17:28:14.500Z,9.87
2023-03-15T17:30:42.179Z,11.13
2023-03-15T17:33:11.596Z,9.20
2023-03-15T17:35:42.556Z,8.10
2023-03-15T17:38:18.384Z,12.43
2023-03-15T17:40:46.274Z,28.13
2023-03-15T17:43:17.204Z,21.20
2023-03-15T17:45:45.152Z,17.23
2023-03-15T17:48:12.763Z,15.70
2023-03-15T17:50:43.302Z,12.83
2023-03-15T17:53:16.398Z,8.90
2023-03-15T17:55:44.041Z,10.50
2023-03-15T17:58:17.147Z,9.87
2023-03-15T18:00:47.898Z,8.77
2023-03-15T18:03:16.711Z,7.77
2023-03-15T18:05:44.952Z,7.17
2023-03-15T18:08:14.097Z,9.47
2023-03-15T18:10:42.448Z,7.97
2023-03-15T18:13:13.603Z,10.53
2023-03-15T18:15:41.629Z,11.67
2023-03-15T18:18:10.851Z,8.20
2023-03-15T18:20:38.520Z,12.63
2023-03-15T18:23:06.270Z,9.13
2023-03-15T18:25:36.013Z,10.60
2023-03-15T18:28:03.632Z,12.53
2023-03-15T18:30:34.968Z,15.33
2023-03-15T18:33:03.745Z,24.63
2023-03-15T18:35:34.806Z,20.90
2023-03-15T18:38:03.922Z,11.20
2023-03-15T18:40:33.041Z,10.27
2023-03-15T18:43:00.560Z,9.77
2023-03-15T18:45:31.281Z,8.70
2023-03-15T18:48:00.218Z,9.33
2023-03-15T18:50:28.939Z,9.73
2023-03-15T18:52:58.164Z,11.87
2023-03-15T18:55:26.710Z,10.60
2023-03-15T18:57:55.986Z,10.67
2023-03-15T19:00:27.213Z,11.90
2023-03-15T19:02:57.123Z,11.27
2023-03-15T19:05:25.550Z,12.07
2023-03-15T19:07:53.260Z,11.37
2023-03-15T19:10:24.364Z,12.03
2023-03-15T19:12:52.205Z,14.73
2023-03-15T19:15:21.129Z,35.53
2023-03-15T19:17:51.327Z,15.10
2023-03-15T19:20:22.019Z,31.80
2023-03-15T19:22:49.894Z,20.63
2023-03-15T19:25:17.491Z,27.00
2023-03-15T19:27:46.609Z,9.43
2023-03-15T19:30:18.061Z,14.20
2023-03-15T19:32:47.891Z,11.20
2023-03-15T19:35:16.301Z,12.53
2023-03-15T19:37:44.445Z,11.13
2023-03-15T19:40:15.422Z,7.37
2023-03-15T19:42:43.504Z,8.40
2023-03-15T19:45:13.171Z,9.10
2023-03-15T19:47:40.694Z,7.40
2023-03-15T19:50:10.521Z,8.40
2023-03-15T19:52:45.561Z,8.73
2023-03-15T19:55:13.251Z,8.70
2023-03-15T19:57:40.760Z,9.43
2023-03-15T20:00:12.609Z,9.40
2023-03-15T20:02:41.988Z,8.50
2023-03-15T20:05:10.876Z,8.27
2023-03-15T20:07:38.398Z,9.63
2023-03-15T20:10:08.377Z,9.43
2023-03-15T20:12:36.268Z,9.37
2023-03-15T20:15:06.050Z,10.97
2023-03-15T20:17:33.667Z,10.27
2023-03-15T20:20:02.709Z,10.57
2023-03-15T20:22:30.194Z,9.70
2023-03-15T20:24:57.666Z,10.87
2023-03-15T20:27:25.130Z,11.87
2023-03-15T20:29:53.012Z,9.60
2023-03-15T20:32:20.570Z,10.43
2023-03-15T20:34:48.163Z,11.90
2023-03-15T20:37:17.096Z,9.73
2023-03-15T20:39:44.595Z,10.60
2023-03-15T20:42:12.084Z,9.73
2023-03-15T20:44:41.450Z,13.17
2023-03-15T20:47:09.237Z,11.37
2023-03-15T20:49:36.874Z,12.80
2023-03-15T20:52:05.096Z,19.20
2023-03-15T20:54:34.142Z,16.50
2023-03-15T20:57:01.686Z,14.53
2023-03-15T20:59:29.238Z,12.87
2023-03-15T21:01:57.141Z,10.47
2023-03-15T21:04:26.087Z,9.60
2023-03-15T21:06:53.723Z,9.77
2023-03-15T21:09:21.199Z,12.10
2023-03-15T21:11:50.101Z,11.93
2023-03-15T21:14:17.600Z,10.43
2023-03-15T21:16:45.106Z,11.23
2023-03-15T21:19:12.584Z,10.60
2023-03-15T21:21:43.044Z,12.67
2023-03-15T21:24:10.821Z,13.30
2023-03-15T21:26:38.847Z,13.80
2023-03-15T21:29:07.647Z,12.57
2023-03-15T21:31:36.533Z,12.23
2023-03-15T21:34:04.997Z,11.10
2023-03-15T21:36:32.544Z,11.43
2023-03-15T21:39:01.442Z,11.57
2023-03-15T21:41:28.928Z,12.60
2023-03-15T21:43:56.446Z,12.10
2023-03-15T21:46:26.018Z,12.47
2023-03-15T21:48:53.594Z,11.73
2023-03-15T21:51:22.178Z,12.23
2023-03-15T21:53:50.326Z,11.73
2023-03-15T21:56:17.903Z,12.20
2023-03-15T21:58:45.386Z,12.33
2023-03-15T22:01:14.672Z,13.07
2023-03-15T22:03:44.220Z,11.73
2023-03-15T22:06:12.960Z,12.13
2023-03-15T22:08:40.769Z,9.37
2023-03-15T22:11:08.349Z,10.37
2023-03-15T22:13:36.898Z,9.97
2023-03-15T22:16:05.052Z,10.53
2023-03-15T22:18:32.707Z,10.47
2023-03-15T22:21:01.754Z,9.00
2023-03-15T22:23:29.357Z,11.10
2023-03-15T22:25:57.179Z,11.43
2023-03-15T22:28:25.987Z,11.07
2023-03-15T22:30:53.624Z,9.40
2023-03-15T22:33:22.498Z,8.47
2023-03-15T22:35:56.378Z,8.20
2023-03-15T22:38:26.216Z,9.50
2023-03-15T22:41:02.063Z,11.00
2023-03-15T22:43:29.790Z,12.30
2023-03-15T22:45:57.338Z,8.07
2023-03-15T22:48:25.980Z,11.67
2023-03-15T22:50:58.067Z,8.37
2023-03-15T22:53:28.279Z,8.33
2023-03-15T22:55:55.812Z,11.00
2023-03-15T22:58:23.806Z,12.60
2023-03-15T23:00:51.345Z,9.97
2023-03-15T23:03:19.347Z,11.07
2023-03-15T23:05:46.979Z,9.90
2023-03-15T23:08:14.471Z,13.60
2023-03-15T23:10:43.414Z,14.03
2023-03-15T23:13:11.672Z,12.07
2023-03-15T23:15:39.436Z,12.37
2023-03-15T23:18:07.406Z,11.17
2023-03-15T23:20:35.336Z,10.17
2023-03-15T23:23:03.243Z,10.40
2023-03-15T23:25:30.715Z,11.07
2023-03-15T23:27:59.531Z,11.23
2023-03-15T23:30:32.290Z,11.63
2023-03-15T23:33:01.152Z,10.40
2023-03-15T23:35:29.798Z,15.17
2023-03-15T23:37:57.961Z,13.40
2023-03-15T23:40:26.060Z,13.73
2023-03-15T23:42:58.742Z,14.10
2023-03-15T23:45:29.784Z,14.27
2023-03-15T23:47:57.638Z,13.00
2023-03-15T23:50:26.793Z,11.33
2023-03-15T23:52:55.172Z,9.90
2023-03-15T23:55:24.422Z,12.43
2023-03-15T23:57:52.022Z,10.17
